Time;durP1;ratioP1;P1;durP2;ratioP2;P2;SDS_P1;SDS_P2;PMS_P1;PMS_P2;Temp;Humidity;BMP_temperature;BMP_pressure;BME280_temperature;BME280_humidity;BME280_pressure;Samples;Min_cycle;Max_cycle;Signal;HPM_P1;HPM_P2
2022/02/26 00:00:14;;;;;;;39.90;18.60;;;;;;;1.70;60.76;100867.73;1652143;85;26203;-72
2022/02/26 00:02:42;;;;;;;39.55;18.62;;;;;;;1.64;60.99;100868.69;1673790;85;25439;-72
2022/02/26 00:05:10;;;;;;;35.85;17.70;;;;;;;1.56;60.99;100869.05;1673545;85;27331;-72
2022/02/26 00:07:37;;;;;;;33.10;17.27;;;;;;;1.47;61.39;100867.27;1673784;85;25661;-72
2022/02/26 00:10:05;;;;;;;36.73;17.05;;;;;;;1.41;61.40;100871.66;1673771;85;25436;-71
2022/02/26 00:12:31;;;;;;;37.38;19.00;;;;;;;1.36;61.97;100876.08;1673471;85;26175;-71
2022/02/26 00:14:58;;;;;;;31.85;16.95;;;;;;;1.26;61.84;100873.48;1673653;85;25827;-72
2022/02/26 00:17:25;;;;;;;34.58;17.40;;;;;;;1.23;61.86;100879.80;1673780;85;27304;-71
2022/02/26 00:19:51;;;;;;;35.98;18.27;;;;;;;1.16;62.03;100873.76;1673486;85;25696;-71
2022/02/26 00:22:18;;;;;;;38.00;18.73;;;;;;;1.12;62.14;100877.41;1673760;85;25630;-72
2022/02/26 00:24:45;;;;;;;37.78;18.27;;;;;;;1.05;62.28;100880.19;1673738;85;25628;-72
2022/02/26 00:27:11;;;;;;;33.58;18.52;;;;;;;1.00;62.16;100873.94;1673484;85;25757;-71
2022/02/26 00:29:40;;;;;;;32.28;16.97;;;;;;;0.95;62.14;100877.81;1673819;85;28139;-71
2022/02/26 00:32:07;;;;;;;34.90;16.40;;;;;;;0.88;62.14;100884.58;1673620;85;25740;-71
2022/02/26 00:34:34;;;;;;;32.50;17.00;;;;;;;0.79;62.33;100881.44;1673505;85;25268;-72
2022/02/26 00:37:01;;;;;;;34.83;16.23;;;;;;;0.71;62.91;100887.09;1673643;85;25703;-72
2022/02/26 00:39:27;;;;;;;31.85;16.25;;;;;;;0.64;63.02;100891.72;1673779;85;25826;-71
2022/02/26 00:41:54;;;;;;;33.23;16.40;;;;;;;0.57;63.37;100890.48;1673510;85;27468;-71
2022/02/26 00:44:20;;;;;;;37.15;17.48;;;;;;;0.53;63.38;100892.80;1669772;85;25866;-71
2022/02/26 00:46:47;;;;;;;36.83;16.93;;;;;;;0.46;63.57;100893.41;1661401;86;25626;-71
2022/02/26 00:51:58;;;;;;;30.70;14.15;;;;;;;0.35;64.12;100896.84;1661317;86;26111;-71
2022/02/26 00:54:25;;;;;;;37.00;15.28;;;;;;;0.27;64.09;100899.28;1661073;86;27477;-73
2022/02/26 00:56:52;;;;;;;30.77;15.03;;;;;;;0.21;64.42;100898.87;1661057;86;25807;-71
2022/02/26 00:59:19;;;;;;;27.93;14.35;;;;;;;0.18;64.60;100904.63;1661518;86;25528;-71
2022/02/26 01:01:46;;;;;;;33.88;14.43;;;;;;;0.14;64.60;100904.80;1661456;86;25628;-71
2022/02/26 01:04:12;;;;;;;25.23;14.45;;;;;;;0.10;64.62;100910.26;1661545;86;25580;-72
2022/02/26 01:06:40;;;;;;;29.45;14.58;;;;;;;0.07;65.19;100910.20;1661495;86;27333;-71
2022/02/26 01:09:07;;;;;;;31.07;14.10;;;;;;;0.04;65.02;100905.33;1661416;86;25396;-71
2022/02/26 01:11:33;;;;;;;30.30;14.70;;;;;;;0.01;65.20;100907.09;1661483;86;25618;-72
2022/02/26 01:14:00;;;;;;;32.10;13.98;;;;;;;-0.03;65.51;100909.39;1661473;86;25629;-71
2022/02/26 01:16:27;;;;;;;29.20;14.55;;;;;;;-0.06;65.75;100917.01;1661521;86;25510;-71
2022/02/26 01:18:54;;;;;;;30.37;15.10;;;;;;;-0.08;65.77;100915.89;1661516;86;27336;-71
2022/02/26 01:21:21;;;;;;;28.92;13.83;;;;;;;-0.09;65.80;100918.25;1661417;86;25543;-71
2022/02/26 01:23:51;;;;;;;33.15;13.45;;;;;;;-0.09;66.03;100918.78;1661517;86;25569;-71
2022/02/26 01:26:20;;;;;;;33.38;14.33;;;;;;;-0.10;66.05;100915.31;1661502;86;25637;-72
2022/02/26 01:28:47;;;;;;;31.12;14.73;;;;;;;-0.10;65.82;100917.97;1661676;86;25173;-72
2022/02/26 01:31:15;;;;;;;24.40;13.78;;;;;;;-0.10;65.96;100921.13;1661484;86;27873;-72
2022/02/26 01:33:42;;;;;;;28.20;14.13;;;;;;;-0.12;66.13;100911.23;1661418;86;25443;-72
2022/02/26 01:36:09;;;;;;;28.50;13.80;;;;;;;-0.12;66.19;100919.22;1661513;86;25617;-72
2022/02/26 01:38:36;;;;;;;28.42;14.35;;;;;;;-0.12;66.13;100917.39;1661494;86;26155;-73
2022/02/26 01:41:04;;;;;;;29.07;14.73;;;;;;;-0.14;66.28;100918.11;1661481;86;25574;-73
2022/02/26 01:43:33;;;;;;;31.23;13.53;;;;;;;-0.16;66.18;100921.51;1644149;86;27412;-72
2022/02/26 01:46:02;;;;;;;28.73;13.83;;;;;;;-0.16;66.56;100920.70;1672972;85;25662;-71
2022/02/26 01:48:29;;;;;;;32.60;13.97;;;;;;;-0.16;66.54;100922.03;1675034;85;25584;-72
2022/02/26 01:50:57;;;;;;;31.37;13.78;;;;;;;-0.16;66.75;100926.02;1674789;85;25635;-72
2022/02/26 01:53:24;;;;;;;30.08;14.65;;;;;;;-0.14;66.88;100931.93;1674837;85;25628;-71
2022/02/26 01:55:51;;;;;;;31.15;14.98;;;;;;;-0.12;67.02;100928.52;1674858;85;27351;-71
2022/02/26 01:58:18;;;;;;;28.67;13.93;;;;;;;-0.11;66.87;100933.62;1674779;85;25664;-70
2022/02/26 02:00:45;;;;;;;29.02;13.85;;;;;;;-0.07;66.90;100935.31;1674795;85;25408;-71
2022/02/26 02:03:11;;;;;;;34.75;14.98;;;;;;;-0.04;67.06;100938.87;1674829;85;25640;-70
2022/02/26 02:05:39;;;;;;;29.48;14.40;;;;;;;-0.01;67.11;100933.91;1674868;85;25404;-71
2022/02/26 02:08:06;;;;;;;35.90;14.83;;;;;;;0.03;67.14;100938.80;1674965;85;27338;-72
2022/02/26 02:10:35;;;;;;;31.40;14.93;;;;;;;0.06;67.27;100940.48;1674755;85;25489;-71
2022/02/26 02:13:01;;;;;;;35.73;15.30;;;;;;;0.08;67.41;100945.59;1675095;85;25484;-71
2022/02/26 02:15:41;;;;;;;31.02;14.43;;;;;;;0.09;67.30;100945.89;1674856;85;25643;-71
2022/02/26 02:18:11;;;;;;;30.17;14.90;;;;;;;0.13;67.26;100948.39;1674951;85;25579;-71
2022/02/26 02:20:40;;;;;;;30.57;14.20;;;;;;;0.15;67.24;100947.64;1674767;85;28237;-70
2022/02/26 02:23:07;;;;;;;31.97;14.73;;;;;;;0.16;67.16;100948.75;1675170;85;25543;-70
2022/02/26 02:25:37;;;;;;;33.45;15.78;;;;;;;0.18;67.11;100948.53;1674945;85;25549;-70
2022/02/26 02:28:06;;;;;;;32.60;15.08;;;;;;;0.21;67.28;100949.42;1675085;85;25440;-70
2022/02/26 02:30:33;;;;;;;34.60;15.18;;;;;;;0.24;67.27;100953.47;1675038;85;25411;-70
2022/02/26 02:33:01;;;;;;;28.27;15.63;;;;;;;0.27;67.08;100961.81;1674849;85;28048;-71
2022/02/26 02:35:35;;;;;;;32.33;15.35;;;;;;;0.30;67.16;100958.71;1674818;85;25408;-71
2022/02/26 02:38:07;;;;;;;33.73;15.10;;;;;;;0.32;67.07;100967.30;1681851;85;25648;-71
2022/02/26 02:40:33;;;;;;;30.30;15.00;;;;;;;0.36;67.16;100967.14;1674707;85;25647;-71
2022/02/26 02:43:01;;;;;;;26.90;15.15;;;;;;;0.36;67.15;100968.47;1674820;85;25226;-71
2022/02/26 02:45:27;;;;;;;34.23;15.80;;;;;;;0.40;67.15;100974.69;1674734;85;27348;-71
2022/02/26 02:47:54;;;;;;;30.97;14.20;;;;;;;0.42;67.26;100979.25;1674721;85;25646;-71
2022/02/26 02:50:21;;;;;;;31.02;15.68;;;;;;;0.42;67.21;100980.59;1674741;85;25480;-71
2022/02/26 02:52:48;;;;;;;29.65;15.18;;;;;;;0.45;67.20;100987.60;1674730;85;26178;-71
2022/02/26 02:55:16;;;;;;;30.80;16.52;;;;;;;0.47;67.19;100983.39;1674761;85;25468;-70
2022/02/26 02:57:44;;;;;;;32.88;15.55;;;;;;;0.49;67.27;100993.28;1674749;85;28144;-70
2022/02/26 03:00:13;;;;;;;29.82;14.80;;;;;;;0.51;67.27;100993.88;1674669;85;25694;-70
2022/02/26 03:02:42;;;;;;;33.20;16.65;;;;;;;0.54;67.22;101001.41;1659100;85;25518;-70
2022/02/26 03:05:10;;;;;;;34.58;16.80;;;;;;;0.57;67.14;101002.30;1674707;85;25439;-69
2022/02/26 03:07:37;;;;;;;34.90;15.72;;;;;;;0.58;67.34;101004.44;1674774;85;25635;-71
2022/02/26 03:10:06;;;;;;;35.35;16.93;;;;;;;0.60;67.28;101004.52;1674661;85;27429;-71
2022/02/26 03:12:34;;;;;;;30.70;15.88;;;;;;;0.61;67.31;101008.78;1674793;85;25463;-71
2022/02/26 03:15:00;;;;;;;32.80;15.70;;;;;;;0.62;67.32;101004.30;1674825;85;25569;-71
2022/02/26 03:17:27;;;;;;;30.08;15.58;;;;;;;0.64;67.31;101012.34;1674725;85;25610;-71
2022/02/26 03:19:53;;;;;;;35.17;15.60;;;;;;;0.66;67.38;101019.58;1658899;85;25503;-71
2022/02/26 03:22:20;;;;;;;34.88;16.10;;;;;;;0.69;67.32;101028.45;1674723;85;27354;-70
2022/02/26 03:24:48;;;;;;;33.63;14.93;;;;;;;0.69;67.37;101021.80;1674609;85;25579;-70
2022/02/26 03:27:15;;;;;;;34.50;16.40;;;;;;;0.70;67.28;101030.09;1674732;85;25397;-70
2022/02/26 03:29:42;;;;;;;34.73;16.80;;;;;;;0.74;67.37;101039.24;1674691;85;25613;-71
2022/02/26 03:32:10;;;;;;;37.30;15.38;;;;;;;0.76;67.32;101039.02;1674764;85;25480;-71
2022/02/26 03:34:40;;;;;;;32.55;16.65;;;;;;;0.80;67.29;101039.38;1674741;85;27512;-70
2022/02/26 03:37:06;;;;;;;;;;;;;;;0.82;67.40;101046.62;1677171;85;25609;-70
2022/02/26 03:39:34;;;;;;;31.68;15.48;;;;;;;0.84;67.42;101048.03;1674756;85;25601;-71
2022/02/26 03:42:05;;;;;;;31.25;15.03;;;;;;;0.86;67.39;101048.61;1674693;85;25627;-71
2022/02/26 03:44:33;;;;;;;28.85;14.05;;;;;;;0.88;67.37;101048.39;1674804;85;25476;-71
2022/02/26 03:47:00;;;;;;;30.70;15.23;;;;;;;0.91;67.28;101057.27;1674683;85;27376;-71
2022/02/26 03:49:27;;;;;;;27.17;14.58;;;;;;;0.93;67.37;101062.66;1674664;85;25558;-71
2022/02/26 03:51:54;;;;;;;29.12;15.00;;;;;;;0.96;67.40;101060.59;1674743;85;25615;-71
2022/02/26 03:54:21;;;;;;;28.40;15.45;;;;;;;0.98;67.34;101066.50;1674731;85;25658;-71
2022/02/26 03:56:49;;;;;;;32.90;15.70;;;;;;;0.98;67.33;101064.65;1674770;85;25566;-71
2022/02/26 03:59:16;;;;;;;28.45;14.00;;;;;;;1.01;67.17;101072.72;1674711;85;27346;-71
2022/02/26 04:01:43;;;;;;;29.42;13.30;;;;;;;1.04;67.18;101078.91;1674614;85;25706;-71
2022/02/26 04:04:10;;;;;;;32.20;14.83;;;;;;;1.03;67.30;101082.09;1674741;85;25525;-71
2022/02/26 04:06:37;;;;;;;31.30;13.98;;;;;;;1.05;67.31;101086.67;1674688;85;25621;-72
2022/02/26 04:09:05;;;;;;;32.53;14.07;;;;;;;1.07;67.21;101086.45;1674746;85;25631;-71
2022/02/26 04:11:33;;;;;;;29.55;14.83;;;;;;;1.08;67.14;101092.89;1674929;85;27446;-71
2022/02/26 04:14:00;;;;;;;33.40;14.90;;;;;;;1.08;67.17;101091.56;1674627;85;25215;-71
2022/02/26 04:16:26;;;;;;;27.58;13.08;;;;;;;1.10;67.10;101102.80;1674708;85;25632;-71
2022/02/26 04:18:53;;;;;;;30.50;13.78;;;;;;;1.09;67.19;101103.86;1674688;85;25679;-71
2022/02/26 04:21:20;;;;;;;33.20;14.47;;;;;;;1.09;67.11;101103.02;1659024;85;25664;-72
2022/02/26 04:23:46;;;;;;;25.37;14.00;;;;;;;1.07;66.95;101108.60;1674706;85;28006;-71
2022/02/26 04:26:13;;;;;;;27.30;14.85;;;;;;;1.08;66.97;101111.55;1674588;85;25429;-71
2022/02/26 04:28:40;;;;;;;27.98;14.43;;;;;;;1.07;66.94;101110.44;1674769;85;25418;-71
2022/02/26 04:31:06;;;;;;;28.12;14.55;;;;;;;1.07;67.11;101115.27;1674790;85;26178;-71
2022/02/26 04:33:33;;;;;;;29.12;14.58;;;;;;;1.06;66.94;101126.14;1674896;85;25433;-71
2022/02/26 04:35:59;;;;;;;28.55;14.07;;;;;;;1.04;67.24;101127.70;1674875;85;27458;-71
2022/02/26 04:38:29;;;;;;;32.80;14.98;;;;;;;1.04;67.29;101132.20;1674799;85;25674;-71
2022/02/26 04:40:58;;;;;;;;;;;;;;;1.02;67.49;101136.44;1677428;85;25429;-71
2022/02/26 04:43:25;;;;;;;29.87;14.30;;;;;;;1.02;67.54;101142.27;1673622;85;25691;-71
2022/02/26 04:45:52;;;;;;;31.52;15.10;;;;;;;1.00;67.49;101145.16;1674443;85;25633;-71
2022/02/26 04:48:18;;;;;;;27.25;13.65;;;;;;;1.00;67.36;101147.81;1673871;85;27405;-71
2022/02/26 04:50:45;;;;;;;31.23;15.08;;;;;;;1.00;67.40;101148.34;1673810;85;25659;-71
2022/02/26 04:53:13;;;;;;;30.02;14.53;;;;;;;1.01;67.43;101156.12;1673855;85;25622;-71
2022/02/26 04:55:40;;;;;;;31.60;14.73;;;;;;;1.00;67.54;101161.14;1673858;85;26160;-71
2022/02/26 04:58:07;;;;;;;35.40;14.53;;;;;;;0.97;67.35;101156.28;1673937;85;25579;-71
2022/02/26 05:00:34;;;;;;;29.27;14.30;;;;;;;0.96;67.24;101166.63;1673848;85;27347;-71
2022/02/26 05:03:01;;;;;;;31.48;14.98;;;;;;;0.94;67.38;101164.72;1673776;85;25615;-71
2022/02/26 05:05:27;;;;;;;26.05;13.88;;;;;;;0.92;67.53;101171.59;1673908;85;25445;-71
2022/02/26 05:07:54;;;;;;;27.62;13.55;;;;;;;0.92;67.48;101182.78;1673860;85;25636;-71
2022/02/26 05:10:21;;;;;;;27.98;14.05;;;;;;;0.90;67.85;101171.51;1673897;85;25396;-71
2022/02/26 05:12:47;;;;;;;28.92;14.07;;;;;;;0.90;67.82;101183.00;1673854;85;27512;-72
2022/02/26 05:15:14;;;;;;;27.85;13.93;;;;;;;0.90;67.80;101183.00;1673771;85;25620;-72
2022/02/26 05:17:42;;;;;;;28.17;14.10;;;;;;;0.90;68.12;101184.33;1673852;85;26135;-71
2022/02/26 05:20:10;;;;;;;30.48;13.35;;;;;;;0.90;68.27;101184.83;1673869;85;25618;-71
2022/02/26 05:22:37;;;;;;;24.85;14.35;;;;;;;0.89;68.09;101196.02;1673934;85;25585;-71
2022/02/26 05:25:07;;;;;;;28.50;14.45;;;;;;;0.88;68.28;101197.03;1673956;85;27920;-71
2022/02/26 05:27:34;;;;;;;35.50;14.35;;;;;;;0.87;68.36;101196.76;1673849;85;25653;-72
2022/02/26 05:30:01;;;;;;;25.88;14.23;;;;;;;0.85;68.30;101201.50;1673911;85;25397;-71
2022/02/26 05:32:27;;;;;;;28.92;14.05;;;;;;;0.84;68.24;101207.05;1673894;85;25645;-70
2022/02/26 05:34:54;;;;;;;33.45;16.85;;;;;;;0.82;68.44;101211.75;1673909;85;25408;-71
2022/02/26 05:37:22;;;;;;;29.27;14.23;;;;;;;0.80;68.26;101214.67;1673992;85;27336;-70
2022/02/26 05:39:48;;;;;;;26.35;13.22;;;;;;;0.79;68.37;101216.22;1673799;85;25731;-70
2022/02/26 05:42:16;;;;;;;24.35;13.13;;;;;;;0.78;68.25;101215.91;1675284;85;25670;-72
2022/02/26 05:44:43;;;;;;;28.40;13.38;;;;;;;0.77;68.09;101214.27;1673852;85;25880;-71
2022/02/26 05:47:18;;;;;;;25.97;12.88;;;;;;;0.77;68.39;101216.93;1664776;85;25218;-72
2022/02/26 05:49:44;;;;;;;28.25;13.22;;;;;;;0.75;68.38;101221.17;1661515;86;27347;-72
2022/02/26 05:52:11;;;;;;;29.20;14.10;;;;;;;0.72;68.51;101226.41;1661482;86;25610;-71
2022/02/26 05:54:37;;;;;;;28.27;13.30;;;;;;;0.68;68.34;101224.39;1661491;86;25552;-71
2022/02/26 05:57:05;;;;;;;25.48;13.60;;;;;;;0.65;68.57;101224.86;1661545;86;25684;-71
2022/02/26 05:59:33;;;;;;;27.67;13.38;;;;;;;0.61;68.51;101227.64;1661674;86;25419;-71
2022/02/26 06:01:59;;;;;;;33.65;14.28;;;;;;;0.57;68.71;101236.59;1661601;86;27324;-71
2022/02/26 06:04:26;;;;;;;25.27;12.73;;;;;;;0.54;68.68;101238.36;1661581;86;25614;-71
2022/02/26 06:06:53;;;;;;;24.00;12.90;;;;;;;0.50;68.40;101243.83;1661508;86;25592;-71
2022/02/26 06:09:19;;;;;;;28.57;13.85;;;;;;;0.47;68.17;101253.05;1661448;86;25621;-71
2022/02/26 06:11:46;;;;;;;28.35;13.20;;;;;;;0.45;68.52;101249.00;1661513;86;25457;-71
2022/02/26 06:14:13;;;;;;;25.30;13.58;;;;;;;0.43;68.89;101253.20;1661441;86;27903;-71
2022/02/26 06:16:39;;;;;;;28.60;15.08;;;;;;;0.40;68.40;101256.82;1661382;86;25650;-72
2022/02/26 06:19:06;;;;;;;25.68;13.30;;;;;;;0.39;68.44;101264.49;1661496;86;25538;-72
2022/02/26 06:21:32;;;;;;;31.35;13.13;;;;;;;0.36;68.82;101261.77;1661466;86;25603;-72
2022/02/26 06:23:59;;;;;;;29.87;13.28;;;;;;;0.34;68.58;101269.97;1661489;86;25424;-72
2022/02/26 06:26:25;;;;;;;28.20;12.98;;;;;;;0.33;68.81;101275.50;1661510;86;27176;-71
2022/02/26 06:28:54;;;;;;;27.30;13.80;;;;;;;0.31;68.93;101280.23;1661421;86;25596;-71
2022/02/26 06:31:21;;;;;;;28.15;14.63;;;;;;;0.31;69.34;101293.02;1661441;86;25584;-72
2022/02/26 06:33:48;;;;;;;28.47;13.83;;;;;;;0.37;69.95;101295.31;1661422;86;25670;-72
2022/02/26 06:36:15;;;;;;;31.33;14.58;;;;;;;0.47;71.04;101300.97;1661527;86;25494;-73
2022/02/26 06:38:42;;;;;;;35.50;15.32;;;;;;;0.63;71.62;101308.95;1661544;86;27329;-71
2022/02/26 06:41:11;;;;;;;27.35;15.88;;;;;;;0.83;71.91;101313.28;1661393;86;25694;-73
2022/02/26 06:43:38;;;;;;;27.37;14.85;;;;;;;1.05;72.69;101313.69;1661303;86;25607;-71
2022/02/26 06:46:07;;;;;;;28.05;14.15;;;;;;;1.28;72.56;101315.19;1661671;85;25624;-72
2022/02/26 06:48:34;;;;;;;27.00;13.98;;;;;;;1.52;72.71;101322.53;1661431;86;25698;-71
2022/02/26 06:51:01;;;;;;;29.12;14.25;;;;;;;1.68;72.12;101320.58;1661242;86;27345;-71
2022/02/26 06:53:28;;;;;;;29.82;15.18;;;;;;;1.80;71.76;101324.64;1661209;86;25470;-72
2022/02/26 06:55:54;;;;;;;30.20;15.10;;;;;;;1.88;71.57;101328.33;1661156;86;25428;-72
2022/02/26 06:58:23;;;;;;;28.05;15.20;;;;;;;1.97;71.24;101334.16;1661238;86;26131;-72
2022/02/26 07:00:49;;;;;;;27.85;14.18;;;;;;;2.08;71.16;101343.25;1661177;86;25476;-71
2022/02/26 07:03:16;;;;;;;25.15;14.03;;;;;;;2.17;70.96;101343.24;1661212;86;27379;-71
2022/02/26 07:05:43;;;;;;;26.85;13.98;;;;;;;2.22;70.77;101349.52;1661071;86;25562;-71
2022/02/26 07:08:09;;;;;;;29.42;14.87;;;;;;;2.31;70.49;101358.55;1661107;86;25721;-71
2022/02/26 07:10:36;;;;;;;26.70;14.73;;;;;;;2.36;70.24;101367.50;1661109;86;25697;-71
2022/02/26 07:13:02;;;;;;;33.65;15.63;;;;;;;2.42;70.26;101375.14;1643954;86;25454;-71
2022/02/26 07:15:33;;;;;;;34.50;18.42;;;;;;;2.48;70.30;101373.41;1661456;86;27911;-72
2022/02/26 07:17:59;;;;;;;29.63;15.38;;;;;;;2.53;70.27;101377.53;1661313;86;25786;-72
2022/02/26 07:20:26;;;;;;;40.23;18.52;;;;;;;2.61;70.41;101382.55;1661298;86;25416;-71
2022/02/26 07:22:53;;;;;;;43.75;20.82;;;;;;;2.68;70.44;101384.59;1661119;86;26174;-71
2022/02/26 07:25:19;;;;;;;36.48;18.73;;;;;;;2.77;70.49;101389.08;1661416;86;25658;-71
2022/02/26 07:27:46;;;;;;;36.28;19.15;;;;;;;2.85;70.40;101391.42;1661284;86;27398;-72
2022/02/26 07:30:12;;;;;;;30.48;16.25;;;;;;;2.95;70.63;101393.54;1661149;86;25703;-72
2022/02/26 07:32:39;;;;;;;32.53;15.72;;;;;;;3.05;70.53;101395.61;1661109;86;25650;-71
2022/02/26 07:35:06;;;;;;;30.02;16.27;;;;;;;3.19;70.66;101401.05;1661095;86;26334;-73
2022/02/26 07:37:32;;;;;;;24.47;15.32;;;;;;;3.31;70.68;101402.38;1661143;86;25722;-72
2022/02/26 07:39:59;;;;;;;31.05;15.00;;;;;;;3.43;70.16;101403.72;1661170;86;27301;-72
2022/02/26 07:42:26;;;;;;;27.67;13.60;;;;;;;3.58;70.20;101403.25;1660979;86;25722;-73
2022/02/26 07:44:53;;;;;;;24.70;13.40;;;;;;;3.69;70.00;101412.56;1661038;86;25573;-72
2022/02/26 07:47:19;;;;;;;28.52;14.30;;;;;;;3.84;70.04;101415.29;1661821;85;25624;-72
2022/02/26 07:49:46;;;;;;;24.45;13.13;;;;;;;4.06;70.80;101410.11;1660926;86;25713;-72
2022/02/26 07:52:14;;;;;;;30.50;14.15;;;;;;;4.36;70.39;101418.43;1661013;86;27507;-72
2022/02/26 07:54:42;;;;;;;23.18;13.58;;;;;;;4.59;70.05;101425.02;1660987;86;25302;-72
2022/02/26 07:57:09;;;;;;;23.32;12.68;;;;;;;4.90;70.00;101431.44;1661095;86;25690;-72
2022/02/26 07:59:36;;;;;;;27.67;14.28;;;;;;;5.05;68.69;101427.66;1660992;86;26247;-72
2022/02/26 08:02:03;;;;;;;20.77;12.93;;;;;;;5.07;67.53;101429.57;1660999;86;25763;-72
2022/02/26 08:04:29;;;;;;;26.65;12.98;;;;;;;5.07;67.39;101436.27;1661084;86;27910;-72
2022/02/26 08:06:57;;;;;;;34.53;14.63;;;;;;;5.07;66.88;101432.79;1661050;86;25678;-72
2022/02/26 08:09:24;;;;;;;25.08;13.28;;;;;;;5.32;69.28;101442.57;1661109;86;25800;-72
2022/02/26 08:11:51;;;;;;;22.22;12.40;;;;;;;6.22;69.64;101433.05;1661061;86;26164;-73
2022/02/26 08:14:18;;;;;;;20.48;12.05;;;;;;;7.29;69.40;101432.39;1661159;86;25550;-73
2022/02/26 08:16:46;;;;;;;27.48;12.25;;;;;;;8.12;67.40;101439.00;1661557;86;27971;-73
2022/02/26 08:19:12;;;;;;;23.10;12.78;;;;;;;8.77;66.82;101427.33;1661044;86;25639;-72
2022/02/26 08:21:39;;;;;;;22.48;12.60;;;;;;;9.47;66.70;101434.28;1661150;86;25783;-72
2022/02/26 08:24:07;;;;;;;24.15;13.25;;;;;;;10.31;66.00;101441.80;1660996;86;25839;-72
2022/02/26 08:26:34;;;;;;;22.60;12.90;;;;;;;11.08;63.74;101441.84;1661036;86;25692;-71
2022/02/26 08:29:00;;;;;;;19.87;11.93;;;;;;;11.67;61.78;101443.98;1660967;86;27385;-71
2022/02/26 08:31:27;;;;;;;36.08;20.15;;;;;;;12.26;60.31;101442.75;1660930;86;25610;-72
2022/02/26 08:33:53;;;;;;;23.12;12.40;;;;;;;12.79;58.17;101443.63;1643627;86;26258;-71
2022/02/26 08:36:20;;;;;;;18.55;11.80;;;;;;;13.06;55.90;101445.06;1661002;86;25698;-72
2022/02/26 08:38:47;;;;;;;18.40;10.63;;;;;;;13.48;55.91;101446.52;1661650;86;25825;-72
2022/02/26 08:41:14;;;;;;;20.70;11.15;;;;;;;13.89;54.16;101453.09;1661666;86;27322;-72
2022/02/26 08:43:41;;;;;;;17.42;10.55;;;;;;;14.20;53.43;101460.08;1661473;86;25762;-73
2022/02/26 08:46:07;;;;;;;15.60;10.38;;;;;;;14.61;53.02;101464.64;1662210;86;25357;-74
2022/02/26 08:48:34;;;;;;;17.80;9.63;;;;;;;15.25;52.62;101460.34;1672831;85;25687;-72
2022/02/26 08:51:00;;;;;;;17.95;10.25;;;;;;;15.66;50.32;101463.91;1652084;85;25729;-72
2022/02/26 08:53:27;;;;;;;17.87;11.38;;;;;;;16.12;50.20;101472.19;1673574;85;26986;-73
2022/02/26 08:55:53;;;;;;;16.77;10.80;;;;;;;16.62;48.97;101477.23;1673421;85;25769;-73
2022/02/26 08:58:20;;;;;;;17.17;9.73;;;;;;;17.14;48.41;101476.41;1673636;85;25567;-72
2022/02/26 09:00:49;;;;;;;17.05;10.18;;;;;;;17.54;47.56;101479.46;1673499;85;25621;-68
2022/02/26 09:03:18;;;;;;;14.35;9.43;;;;;;;17.62;45.67;101489.58;1673625;85;25653;-73
2022/02/26 09:05:45;;;;;;;14.20;10.53;;;;;;;17.54;45.95;101489.03;1673485;85;27385;-71
2022/02/26 09:08:12;;;;;;;18.52;12.10;;;;;;;17.52;45.62;101486.62;1673669;85;25593;-74
2022/02/26 09:10:38;;;;;;;12.40;8.58;;;;;;;17.18;45.08;101489.69;1673768;85;25728;-73
2022/02/26 09:13:05;;;;;;;14.58;8.40;;;;;;;17.31;45.38;101493.34;1673779;85;25611;-74
2022/02/26 09:15:34;;;;;;;15.43;9.28;;;;;;;17.21;43.87;101503.83;1674285;85;25625;-74
2022/02/26 09:18:09;;;;;;;14.03;9.65;;;;;;;16.73;42.96;101510.50;1632972;87;27418;-74
2022/02/26 09:20:35;;;;;;;15.58;10.45;;;;;;;16.20;43.06;101513.72;1632417;87;25850;-74
2022/02/26 09:23:03;;;;;;;17.00;9.85;;;;;;;15.69;43.11;101513.75;1609518;87;25741;-73
2022/02/26 09:25:31;;;;;;;14.85;8.88;;;;;;;15.65;44.41;101520.39;1611393;87;26223;-73
2022/02/26 09:28:00;;;;;;;13.53;9.40;;;;;;;15.59;43.15;101522.99;1632582;87;25638;-73
2022/02/26 09:30:27;;;;;;;19.85;11.68;;;;;;;15.30;43.80;101535.17;1632446;87;27484;-72
2022/02/26 09:32:54;;;;;;;22.67;11.20;;;;;;;15.23;44.15;101543.55;1632123;87;25791;-73
2022/02/26 09:35:20;;;;;;;19.70;9.35;;;;;;;15.37;44.46;101537.46;1632221;87;25765;-73
2022/02/26 09:37:48;;;;;;;15.85;9.78;;;;;;;15.40;43.57;101545.02;1632317;87;25801;-73
2022/02/26 09:40:17;;;;;;;15.80;9.93;;;;;;;15.31;43.97;101547.70;1632539;87;25709;-74
2022/02/26 09:42:43;;;;;;;16.82;10.03;;;;;;;15.40;43.18;101542.30;1632385;87;27414;-73
2022/02/26 09:45:10;;;;;;;12.90;8.78;;;;;;;15.57;44.30;101553.87;1632465;87;25651;-72
2022/02/26 09:47:38;;;;;;;13.98;8.73;;;;;;;15.97;44.00;101555.31;1633991;87;25780;-73
2022/02/26 09:50:07;;;;;;;15.90;9.33;;;;;;;16.21;43.08;101549.45;1634817;87;25865;-73
2022/02/26 09:52:42;;;;;;;16.17;9.10;;;;;;;16.11;42.87;101562.59;1635005;87;33186;-73
2022/02/26 09:55:15;;;;;;;21.40;9.33;;;;;;;16.32;43.24;101560.88;1634794;87;27399;-73
2022/02/26 09:57:50;;;;;;;13.88;8.40;;;;;;;16.21;41.78;101560.95;1635001;87;25753;-73
2022/02/26 10:00:32;;;;;;;;;;;;;;;15.73;41.01;101561.66;1637496;87;25818;-71
2022/02/26 10:03:26;;;;;;;16.97;9.15;;;;;;;15.09;40.80;101577.11;1636613;87;26394;-75
2022/02/26 10:06:31;;;;;;;17.37;9.30;;;;;;;14.53;41.15;101572.31;1608044;89;25652;-75
2022/02/26 10:09:17;;;;;;;18.70;10.50;;;;;;;14.08;41.62;101572.14;1558407;92;26362;-74
2022/02/26 10:11:43;;;;;;;16.23;10.70;;;;;;;13.48;41.71;101574.83;1553948;92;25764;-74
2022/02/26 10:14:14;;;;;;;17.92;9.75;;;;;;;12.96;42.10;101582.37;1559736;91;25496;-72
2022/02/26 10:16:57;;;;;;;15.40;8.80;;;;;;;12.56;42.71;101575.03;1576193;90;26342;-70
2022/02/26 10:19:28;;;;;;;13.95;7.67;;;;;;;12.20;42.99;101579.52;1576253;91;25783;-71
2022/02/26 10:21:58;;;;;;;9.70;6.40;;;;;;;11.83;43.34;101578.23;1576046;91;27353;-71
2022/02/26 10:24:28;;;;;;;12.50;7.40;;;;;;;11.57;43.89;101586.59;1575902;91;25795;-71
2022/02/26 10:27:00;;;;;;;15.23;6.78;;;;;;;11.43;44.81;101588.91;1576014;91;25719;-73
2022/02/26 10:29:28;;;;;;;19.10;10.48;;;;;;;11.58;46.43;101584.16;1576062;91;25910;-73
2022/02/26 10:31:58;;;;;;;13.15;7.50;;;;;;;12.07;48.06;101593.23;1576186;91;25363;-73
2022/02/26 10:34:39;;;;;;;13.75;7.70;;;;;;;13.02;48.19;101591.25;1576311;91;27345;-74
2022/02/26 10:37:22;;;;;;;16.40;9.28;;;;;;;13.79;47.17;101592.77;1576187;91;25759;-73
2022/02/26 10:39:55;;;;;;;16.15;8.25;;;;;;;14.63;45.63;101595.04;1577918;89;25748;-72
2022/02/26 10:42:28;;;;;;;13.00;8.20;;;;;;;15.28;45.54;101595.22;1608207;89;25991;-72
2022/02/26 10:45:22;;;;;;;14.95;7.97;;;;;;;16.12;44.66;101592.27;1608969;89;25876;-73
2022/02/26 10:47:46;;;;;;;12.60;8.10;;;;;;;16.81;43.10;101595.77;1589350;89;25710;-73
2022/02/26 10:50:18;;;;;;;13.68;7.80;;;;;;;17.31;41.54;101600.55;1609394;89;25826;-73
2022/02/26 10:53:04;;;;;;;16.15;8.03;;;;;;;17.11;40.08;101598.73;1608887;89;25902;-74
2022/02/26 10:55:59;;;;;;;12.58;8.43;;;;;;;16.62;39.40;101598.79;1608965;89;25693;-73
2022/02/26 10:58:28;;;;;;;14.03;8.53;;;;;;;15.98;39.05;101605.23;1608937;89;25823;-72
2022/02/26 11:01:05;;;;;;;;;;;;;;;15.23;39.49;101612.48;1611371;89;28010;-74
2022/02/26 11:03:34;;;;;;;14.60;8.13;;;;;;;14.61;39.52;101604.05;1608999;89;25773;-74
2022/02/26 11:06:05;;;;;;;16.93;8.90;;;;;;;13.98;39.91;101607.13;1609013;89;25788;-74
2022/02/26 11:09:22;;;;;;;13.60;8.55;;;;;;;13.43;40.52;101605.08;1609057;89;31548;-74
2022/02/26 11:11:52;;;;;;;15.93;8.50;;;;;;;13.06;40.87;101603.16;1608987;89;25739;-73
2022/02/26 11:14:31;;;;;;;13.35;7.85;;;;;;;12.60;41.60;101605.11;1609304;89;26208;-73
2022/02/26 11:17:04;;;;;;;12.35;8.65;;;;;;;12.24;41.71;101606.87;1633821;85;25369;-73
2022/02/26 11:19:34;;;;;;;36.88;21.15;;;;;;;11.89;42.47;101603.42;1674569;85;25759;-72
2022/02/26 11:22:00;;;;;;;21.97;13.75;;;;;;;11.58;43.07;101604.49;1674498;85;25641;-72
2022/02/26 11:24:29;;;;;;;17.23;8.38;;;;;;;11.29;43.34;101600.91;1658577;85;25795;-73